sensor_id;sensor_type;location;lat;lon;timestamp;pressure;altitude;pressure_sealevel;temperature;humidity
82006;BME280;71529;47.484;19.064;2024-02-23T00:00:10;99082.78;;;11.60;55.47
82006;BME280;71529;47.484;19.064;2024-02-23T00:02:39;99078.47;;;11.51;56.15
82006;BME280;71529;47.484;19.064;2024-02-23T00:05:08;99075.94;;;11.58;55.91
82006;BME280;71529;47.484;19.064;2024-02-23T00:07:37;99069.06;;;11.55;55.05
82006;BME280;71529;47.484;19.064;2024-02-23T00:10:07;99076.94;;;11.57;56.49
82006;BME280;71529;47.484;19.064;2024-02-23T00:12:36;99073.41;;;11.64;55.41
82006;BME280;71529;47.484;19.064;2024-02-23T00:15:08;99067.72;;;11.59;56.73
82006;BME280;71529;47.484;19.064;2024-02-23T00:17:37;99074.59;;;11.62;55.77
82006;BME280;71529;47.484;19.064;2024-02-23T00:20:09;99078.13;;;11.54;54.32
82006;BME280;71529;47.484;19.064;2024-02-23T00:22:38;99079.94;;;11.54;55.83
82006;BME280;71529;47.484;19.064;2024-02-23T00:25:08;99082.47;;;11.47;54.92
82006;BME280;71529;47.484;19.064;2024-02-23T00:27:37;99076.13;;;11.48;56.71
82006;BME280;71529;47.484;19.064;2024-02-23T00:30:11;99084.31;;;11.47;56.09
82006;BME280;71529;47.484;19.064;2024-02-23T00:32:40;99082.97;;;11.51;55.59
82006;BME280;71529;47.484;19.064;2024-02-23T00:35:09;99077.91;;;11.64;55.91
82006;BME280;71529;47.484;19.064;2024-02-23T00:37:38;99076.94;;;11.57;55.45
82006;BME280;71529;47.484;19.064;2024-02-23T00:40:09;99075.31;;;11.48;55.79
82006;BME280;71529;47.484;19.064;2024-02-23T00:42:37;99084.00;;;11.42;56.03
82006;BME280;71529;47.484;19.064;2024-02-23T00:45:10;99072.94;;;11.45;56.81
82006;BME280;71529;47.484;19.064;2024-02-23T00:47:39;99068.94;;;11.49;56.03
82006;BME280;71529;47.484;19.064;2024-02-23T00:50:09;99078.59;;;11.58;57.37
82006;BME280;71529;47.484;19.064;2024-02-23T00:52:38;99079.25;;;11.60;56.23
82006;BME280;71529;47.484;19.064;2024-02-23T00:55:08;99063.28;;;11.44;58.38
82006;BME280;71529;47.484;19.064;2024-02-23T00:57:38;99077.97;;;11.40;57.81
82006;BME280;71529;47.484;19.064;2024-02-23T01:00:10;99072.47;;;11.41;57.74
82006;BME280;71529;47.484;19.064;2024-02-23T01:02:40;99064.59;;;11.48;56.89
82006;BME280;71529;47.484;19.064;2024-02-23T01:05:10;99063.44;;;11.42;57.99
82006;BME280;71529;47.484;19.064;2024-02-23T01:07:39;99061.75;;;11.41;57.04
82006;BME280;71529;47.484;19.064;2024-02-23T01:10:08;99057.09;;;11.43;58.37
82006;BME280;71529;47.484;19.064;2024-02-23T01:12:37;99050.88;;;11.51;59.02
82006;BME280;71529;47.484;19.064;2024-02-23T01:15:10;99050.22;;;11.49;57.50
82006;BME280;71529;47.484;19.064;2024-02-23T01:17:38;99044.69;;;11.50;57.98
82006;BME280;71529;47.484;19.064;2024-02-23T01:20:08;99052.72;;;11.50;59.19
82006;BME280;71529;47.484;19.064;2024-02-23T01:22:38;99043.88;;;11.50;59.91
82006;BME280;71529;47.484;19.064;2024-02-23T01:25:07;99042.84;;;11.51;60.49
82006;BME280;71529;47.484;19.064;2024-02-23T01:27:36;99040.72;;;11.46;60.57
82006;BME280;71529;47.484;19.064;2024-02-23T01:30:10;99044.69;;;11.50;60.19
82006;BME280;71529;47.484;19.064;2024-02-23T01:32:39;99047.25;;;11.36;61.00
82006;BME280;71529;47.484;19.064;2024-02-23T01:35:08;99042.06;;;11.42;63.01
82006;BME280;71529;47.484;19.064;2024-02-23T01:37:37;99036.41;;;11.37;62.96
82006;BME280;71529;47.484;19.064;2024-02-23T01:40:07;99030.22;;;11.37;62.71
82006;BME280;71529;47.484;19.064;2024-02-23T01:42:36;99029.91;;;11.24;63.41
82006;BME280;71529;47.484;19.064;2024-02-23T01:45:06;99023.38;;;11.26;64.39
82006;BME280;71529;47.484;19.064;2024-02-23T01:47:39;99025.41;;;11.24;64.43
82006;BME280;71529;47.484;19.064;2024-02-23T01:50:08;99034.56;;;11.30;65.67
82006;BME280;71529;47.484;19.064;2024-02-23T01:52:40;99019.38;;;11.22;65.12
82006;BME280;71529;47.484;19.064;2024-02-23T01:55:09;99026.09;;;11.18;65.48
82006;BME280;71529;47.484;19.064;2024-02-23T01:57:38;99021.75;;;11.17;65.84
82006;BME280;71529;47.484;19.064;2024-02-23T02:00:09;99015.72;;;11.15;66.42
82006;BME280;71529;47.484;19.064;2024-02-23T02:02:44;99029.13;;;11.07;67.05
82006;BME280;71529;47.484;19.064;2024-02-23T02:05:13;99029.94;;;11.15;66.62
82006;BME280;71529;47.484;19.064;2024-02-23T02:07:42;99021.78;;;11.09;67.02
82006;BME280;71529;47.484;19.064;2024-02-23T02:10:11;99027.94;;;11.09;67.25
82006;BME280;71529;47.484;19.064;2024-02-23T02:12:40;99025.16;;;10.95;67.35
82006;BME280;71529;47.484;19.064;2024-02-23T02:15:09;99015.28;;;10.95;67.97
82006;BME280;71529;47.484;19.064;2024-02-23T02:17:39;99014.13;;;10.90;67.85
82006;BME280;71529;47.484;19.064;2024-02-23T02:20:12;99014.13;;;10.98;68.20
82006;BME280;71529;47.484;19.064;2024-02-23T02:22:41;99013.97;;;10.91;68.01
82006;BME280;71529;47.484;19.064;2024-02-23T02:25:10;99014.94;;;10.90;68.37
82006;BME280;71529;47.484;19.064;2024-02-23T02:27:39;99019.47;;;10.90;67.97
82006;BME280;71529;47.484;19.064;2024-02-23T02:30:09;99009.44;;;10.92;67.82
82006;BME280;71529;47.484;19.064;2024-02-23T02:32:38;99008.28;;;10.94;68.26
82006;BME280;71529;47.484;19.064;2024-02-23T02:35:07;99013.97;;;10.91;69.32
82006;BME280;71529;47.484;19.064;2024-02-23T02:37:38;99014.13;;;10.90;69.24
82006;BME280;71529;47.484;19.064;2024-02-23T02:40:08;99015.63;;;10.92;67.88
82006;BME280;71529;47.484;19.064;2024-02-23T02:42:37;99013.13;;;10.91;69.12
82006;BME280;71529;47.484;19.064;2024-02-23T02:45:07;99012.78;;;10.94;69.72
82006;BME280;71529;47.484;19.064;2024-02-23T02:47:36;99010.63;;;10.89;70.23
82006;BME280;71529;47.484;19.064;2024-02-23T02:50:06;99013.44;;;10.96;70.21
82006;BME280;71529;47.484;19.064;2024-02-23T02:52:38;99015.63;;;10.92;70.12
82006;BME280;71529;47.484;19.064;2024-02-23T02:55:08;99015.13;;;10.97;68.72
82006;BME280;71529;47.484;19.064;2024-02-23T02:57:37;99027.00;;;10.86;69.85
82006;BME280;71529;47.484;19.064;2024-02-23T03:00:10;99026.97;;;10.94;70.34
82006;BME280;71529;47.484;19.064;2024-02-23T03:02:40;99016.16;;;10.88;69.89
82006;BME280;71529;47.484;19.064;2024-02-23T03:05:08;99020.47;;;10.89;70.80
82006;BME280;71529;47.484;19.064;2024-02-23T03:07:40;99019.63;;;10.96;70.71
82006;BME280;71529;47.484;19.064;2024-02-23T03:10:09;99016.47;;;10.85;70.51
82006;BME280;71529;47.484;19.064;2024-02-23T03:12:38;99020.13;;;10.92;71.08
82006;BME280;71529;47.484;19.064;2024-02-23T03:15:08;99023.31;;;10.87;71.16
82006;BME280;71529;47.484;19.064;2024-02-23T03:17:37;99021.13;;;10.91;71.00
82006;BME280;71529;47.484;19.064;2024-02-23T03:20:07;99019.47;;;10.90;71.36
82006;BME280;71529;47.484;19.064;2024-02-23T03:22:40;99027.16;;;10.85;71.92
82006;BME280;71529;47.484;19.064;2024-02-23T03:25:09;99029.66;;;10.78;71.30
82006;BME280;71529;47.484;19.064;2024-02-23T03:27:38;99019.81;;;10.79;73.19
82006;BME280;71529;47.484;19.064;2024-02-23T03:30:07;99029.50;;;10.88;71.89
82006;BME280;71529;47.484;19.064;2024-02-23T03:32:36;99027.84;;;10.79;72.56
82006;BME280;71529;47.484;19.064;2024-02-23T03:35:06;99026.50;;;10.75;73.03
82006;BME280;71529;47.484;19.064;2024-02-23T03:37:35;99031.84;;;10.75;72.57
82006;BME280;71529;47.484;19.064;2024-02-23T03:40:08;99036.19;;;10.68;73.86
82006;BME280;71529;47.484;19.064;2024-02-23T03:42:38;99030.19;;;10.74;73.77
82006;BME280;71529;47.484;19.064;2024-02-23T03:45:08;99032.16;;;10.80;71.81
82006;BME280;71529;47.484;19.064;2024-02-23T03:47:38;99029.34;;;10.73;73.81
82006;BME280;71529;47.484;19.064;2024-02-23T03:50:07;99039.69;;;10.76;72.35
82006;BME280;71529;47.484;19.064;2024-02-23T03:52:37;99035.34;;;10.67;74.26
82006;BME280;71529;47.484;19.064;2024-02-23T03:55:09;99032.34;;;10.62;74.05
82006;BME280;71529;47.484;19.064;2024-02-23T03:57:38;99039.00;;;10.74;72.08
82006;BME280;71529;47.484;19.064;2024-02-23T04:00:09;99027.34;;;10.67;71.87
82006;BME280;71529;47.484;19.064;2024-02-23T04:02:38;99033.69;;;10.66;73.19
82006;BME280;71529;47.484;19.064;2024-02-23T04:05:08;99028.81;;;10.78;71.92
82006;BME280;71529;47.484;19.064;2024-02-23T04:07:37;99033.00;;;10.80;69.62
82006;BME280;71529;47.484;19.064;2024-02-23T04:10:09;99030.16;;;10.82;70.55
82006;BME280;71529;47.484;19.064;2024-02-23T04:12:42;99035.69;;;10.80;71.12
82006;BME280;71529;47.484;19.064;2024-02-23T04:15:11;99026.84;;;10.88;69.87
82006;BME280;71529;47.484;19.064;2024-02-23T04:17:39;99031.66;;;10.92;69.01
82006;BME280;71529;47.484;19.064;2024-02-23T04:20:09;99035.16;;;10.85;70.91
82006;BME280;71529;47.484;19.064;2024-02-23T04:22:39;99029.13;;;10.99;69.86
82006;BME280;71529;47.484;19.064;2024-02-23T04:25:11;99033.28;;;11.09;68.31
82006;BME280;71529;47.484;19.064;2024-02-23T04:27:40;99035.47;;;11.06;70.09
82006;BME280;71529;47.484;19.064;2024-02-23T04:30:10;99032.16;;;11.04;69.42
82006;BME280;71529;47.484;19.064;2024-02-23T04:32:40;99035.81;;;11.03;69.13
82006;BME280;71529;47.484;19.064;2024-02-23T04:35:11;99032.47;;;11.01;70.55
82006;BME280;71529;47.484;19.064;2024-02-23T04:37:43;99038.16;;;10.98;70.67
82006;BME280;71529;47.484;19.064;2024-02-23T04:40:15;99034.81;;;11.04;71.48
82006;BME280;71529;47.484;19.064;2024-02-23T04:42:44;99042.00;;;11.03;70.72
82006;BME280;71529;47.484;19.064;2024-02-23T04:45:13;99046.50;;;11.11;71.37
82006;BME280;71529;47.484;19.064;2024-02-23T04:47:42;99043.66;;;11.12;69.80
82006;BME280;71529;47.484;19.064;2024-02-23T04:50:13;99037.28;;;11.13;69.57
82006;BME280;71529;47.484;19.064;2024-02-23T04:52:42;99034.66;;;11.05;70.09
82006;BME280;71529;47.484;19.064;2024-02-23T04:55:11;99036.47;;;11.05;69.22
82006;BME280;71529;47.484;19.064;2024-02-23T04:57:43;99045.97;;;11.15;69.09
82006;BME280;71529;47.484;19.064;2024-02-23T05:00:12;99042.13;;;11.10;70.23
82006;BME280;71529;47.484;19.064;2024-02-23T05:02:42;99041.66;;;11.06;70.43
82006;BME280;71529;47.484;19.064;2024-02-23T05:05:11;99048.13;;;11.20;70.01
82006;BME280;71529;47.484;19.064;2024-02-23T05:07:40;99052.47;;;11.13;70.75
82006;BME280;71529;47.484;19.064;2024-02-23T05:10:10;99054.66;;;11.09;69.80
82006;BME280;71529;47.484;19.064;2024-02-23T05:12:38;99053.50;;;11.12;70.22
82006;BME280;71529;47.484;19.064;2024-02-23T05:15:11;99064.84;;;11.14;69.39
82006;BME280;71529;47.484;19.064;2024-02-23T05:17:40;99076.72;;;11.11;69.96
82006;BME280;71529;47.484;19.064;2024-02-23T05:20:10;99072.22;;;11.12;69.27
82006;BME280;71529;47.484;19.064;2024-02-23T05:22:40;99081.75;;;11.14;70.05
82006;BME280;71529;47.484;19.064;2024-02-23T05:25:09;99079.25;;;11.05;69.40
82006;BME280;71529;47.484;19.064;2024-02-23T05:27:38;99085.75;;;11.10;71.02
82006;BME280;71529;47.484;19.064;2024-02-23T05:30:11;99077.59;;;11.04;70.21
82006;BME280;71529;47.484;19.064;2024-02-23T05:32:41;99089.94;;;11.05;70.39
82006;BME280;71529;47.484;19.064;2024-02-23T05:35:10;99091.75;;;11.04;70.99
82006;BME280;71529;47.484;19.064;2024-02-23T05:37:38;99096.13;;;11.05;70.23
82006;BME280;71529;47.484;19.064;2024-02-23T05:40:07;99098.47;;;11.00;72.42
82006;BME280;71529;47.484;19.064;2024-02-23T05:42:38;99111.31;;;11.05;70.59
82006;BME280;71529;47.484;19.064;2024-02-23T05:45:10;99119.84;;;11.00;71.45
82006;BME280;71529;47.484;19.064;2024-02-23T05:47:39;99113.31;;;11.11;70.61
82006;BME280;71529;47.484;19.064;2024-02-23T05:50:08;99126.81;;;11.09;71.29
82006;BME280;71529;47.484;19.064;2024-02-23T05:52:38;99129.88;;;10.98;70.85
82006;BME280;71529;47.484;19.064;2024-02-23T05:55:07;99143.03;;;10.92;71.96
82006;BME280;71529;47.484;19.064;2024-02-23T05:57:37;99136.69;;;10.93;72.32
82006;BME280;71529;47.484;19.064;2024-02-23T06:00:07;99147.41;;;10.93;72.92
82006;BME280;71529;47.484;19.064;2024-02-23T06:02:38;99150.25;;;10.91;72.62
82006;BME280;71529;47.484;19.064;2024-02-23T06:05:07;99156.75;;;10.97;71.88
82006;BME280;71529;47.484;19.064;2024-02-23T06:07:36;99152.56;;;10.86;73.38
82006;BME280;71529;47.484;19.064;2024-02-23T06:10:07;99164.25;;;10.77;72.61
82006;BME280;71529;47.484;19.064;2024-02-23T06:12:36;99167.22;;;10.74;74.53
82006;BME280;71529;47.484;19.064;2024-02-23T06:15:06;99166.94;;;10.77;74.54
82006;BME280;71529;47.484;19.064;2024-02-23T06:17:38;99172.44;;;10.76;74.79
82006;BME280;71529;47.484;19.064;2024-02-23T06:20:09;99167.59;;;10.79;74.20
82006;BME280;71529;47.484;19.064;2024-02-23T06:22:39;99167.91;;;10.76;74.51
82006;BME280;71529;47.484;19.064;2024-02-23T06:25:08;99177.41;;;10.71;74.58
82006;BME280;71529;47.484;19.064;2024-02-23T06:27:38;99184.63;;;10.70;75.48
82006;BME280;71529;47.484;19.064;2024-02-23T06:30:08;99183.63;;;10.79;75.90
82006;BME280;71529;47.484;19.064;2024-02-23T06:32:40;99184.09;;;10.67;76.14
82006;BME280;71529;47.484;19.064;2024-02-23T06:35:09;99185.25;;;10.64;75.97
82006;BME280;71529;47.484;19.064;2024-02-23T06:37:40;99186.94;;;10.65;76.38
82006;BME280;71529;47.484;19.064;2024-02-23T06:40:10;99187.25;;;10.62;77.42
82006;BME280;71529;47.484;19.064;2024-02-23T06:42:39;99183.59;;;10.63;76.38
82006;BME280;71529;47.484;19.064;2024-02-23T06:45:09;99179.56;;;10.59;77.27
82006;BME280;71529;47.484;19.064;2024-02-23T06:47:40;99187.59;;;10.67;76.64
82006;BME280;71529;47.484;19.064;2024-02-23T06:50:10;99179.91;;;10.56;77.19
82006;BME280;71529;47.484;19.064;2024-02-23T06:52:39;99192.09;;;10.51;77.17
82006;BME280;71529;47.484;19.064;2024-02-23T06:55:08;99195.59;;;10.51;77.60
82006;BME280;71529;47.484;19.064;2024-02-23T06:57:37;99193.94;;;10.58;77.60
82006;BME280;71529;47.484;19.064;2024-02-23T07:00:08;99191.56;;;10.47;77.28
82006;BME280;71529;47.484;19.064;2024-02-23T07:02:37;99191.06;;;10.52;77.81
82006;BME280;71529;47.484;19.064;2024-02-23T07:05:09;99200.94;;;10.59;78.22
82006;BME280;71529;47.484;19.064;2024-02-23T07:07:39;99201.97;;;10.58;77.85
82006;BME280;71529;47.484;19.064;2024-02-23T07:10:09;99194.13;;;10.65;77.84
82006;BME280;71529;47.484;19.064;2024-02-23T07:12:39;99196.63;;;10.58;77.78
82006;BME280;71529;47.484;19.064;2024-02-23T07:15:10;99196.09;;;10.55;77.46
82006;BME280;71529;47.484;19.064;2024-02-23T07:17:39;99199.28;;;10.66;77.45
82006;BME280;71529;47.484;19.064;2024-02-23T07:20:11;99203.31;;;10.70;77.04
82006;BME280;71529;47.484;19.064;2024-02-23T07:22:43;99209.63;;;10.69;77.59
82006;BME280;71529;47.484;19.064;2024-02-23T07:25:15;99212.47;;;10.68;78.22
82006;BME280;71529;47.484;19.064;2024-02-23T07:27:45;99208.31;;;10.65;78.18
82006;BME280;71529;47.484;19.064;2024-02-23T07:30:15;99207.47;;;10.73;77.34
82006;BME280;71529;47.484;19.064;2024-02-23T07:32:45;99211.84;;;10.74;77.03
82006;BME280;71529;47.484;19.064;2024-02-23T07:35:17;99216.84;;;10.77;77.04
82006;BME280;71529;47.484;19.064;2024-02-23T07:37:46;99215.47;;;10.73;77.38
82006;BME280;71529;47.484;19.064;2024-02-23T07:40:15;99215.94;;;10.60;77.38
82006;BME280;71529;47.484;19.064;2024-02-23T07:42:44;99218.31;;;10.63;77.83
82006;BME280;71529;47.484;19.064;2024-02-23T07:45:13;99224.13;;;10.59;77.77
82006;BME280;71529;47.484;19.064;2024-02-23T07:47:42;99216.63;;;10.54;78.33
82006;BME280;71529;47.484;19.064;2024-02-23T07:50:12;99226.00;;;10.58;78.02
82006;BME280;71529;47.484;19.064;2024-02-23T07:52:44;99218.13;;;10.57;78.39
82006;BME280;71529;47.484;19.064;2024-02-23T07:55:13;99229.13;;;10.54;78.58
82006;BME280;71529;47.484;19.064;2024-02-23T07:57:42;99223.97;;;10.60;78.18
82006;BME280;71529;47.484;19.064;2024-02-23T08:00:11;99224.97;;;10.59;78.81
82006;BME280;71529;47.484;19.064;2024-02-23T08:02:40;99230.00;;;10.62;79.75
82006;BME280;71529;47.484;19.064;2024-02-23T08:05:10;99230.66;;;10.64;79.05
82006;BME280;71529;47.484;19.064;2024-02-23T08:07:39;99233.19;;;10.74;78.04
82006;BME280;71529;47.484;19.064;2024-02-23T08:10:11;99232.03;;;10.76;77.72
82006;BME280;71529;47.484;19.064;2024-02-23T08:12:40;99233.69;;;10.69;77.64
82006;BME280;71529;47.484;19.064;2024-02-23T08:15:09;99242.38;;;10.71;77.54
82006;BME280;71529;47.484;19.064;2024-02-23T08:17:38;99245.38;;;10.76;78.03
82006;BME280;71529;47.484;19.064;2024-02-23T08:20:08;99245.72;;;10.73;77.17
82006;BME280;71529;47.484;19.064;2024-02-23T08:22:37;99252.56;;;10.76;77.50
82006;BME280;71529;47.484;19.064;2024-02-23T08:25:10;99250.72;;;10.76;77.65
82006;BME280;71529;47.484;19.064;2024-02-23T08:27:40;99258.72;;;10.76;78.29
82006;BME280;71529;47.484;19.064;2024-02-23T08:30:10;99259.59;;;10.85;76.99
82006;BME280;71529;47.484;19.064;2024-02-23T08:32:39;99251.06;;;10.81;78.18
82006;BME280;71529;47.484;19.064;2024-02-23T08:35:08;99260.44;;;10.85;76.69
82006;BME280;71529;47.484;19.064;2024-02-23T08:37:37;99258.59;;;10.86;77.32
82006;BME280;71529;47.484;19.064;2024-02-23T08:40:11;99260.25;;;10.79;78.76
82006;BME280;71529;47.484;19.064;2024-02-23T08:42:40;99264.97;;;10.93;77.14
82006;BME280;71529;47.484;19.064;2024-02-23T08:45:09;99271.63;;;10.81;77.74
82006;BME280;71529;47.484;19.064;2024-02-23T08:47:39;99265.13;;;10.91;77.52
82006;BME280;71529;47.484;19.064;2024-02-23T08:50:08;99267.59;;;10.85;76.76
82006;BME280;71529;47.484;19.064;2024-02-23T08:52:37;99270.25;;;10.77;77.63
82006;BME280;71529;47.484;19.064;2024-02-23T08:55:07;99265.44;;;10.80;77.71
82006;BME280;71529;47.484;19.064;2024-02-23T08:57:39;99279.47;;;10.82;77.81
82006;BME280;71529;47.484;19.064;2024-02-23T09:00:10;99277.31;;;10.86;77.38
82006;BME280;71529;47.484;19.064;2024-02-23T09:02:40;99280.16;;;10.84;77.49
82006;BME280;71529;47.484;19.064;2024-02-23T09:05:10;99278.28;;;10.85;78.11
82006;BME280;71529;47.484;19.064;2024-02-23T09:07:40;99282.19;;;10.98;77.35
82006;BME280;71529;47.484;19.064;2024-02-23T09:10:09;99283.84;;;10.91;77.67
82006;BME280;71529;47.484;19.064;2024-02-23T09:12:41;99289.50;;;10.88;77.44
82006;BME280;71529;47.484;19.064;2024-02-23T09:15:10;99279.97;;;10.86;77.32
82006;BME280;71529;47.484;19.064;2024-02-23T09:17:40;99289.19;;;10.91;78.11
82006;BME280;71529;47.484;19.064;2024-02-23T09:20:11;99282.66;;;10.94;77.78
82006;BME280;71529;47.484;19.064;2024-02-23T09:22:41;99290.50;;;10.95;77.70
82006;BME280;71529;47.484;19.064;2024-02-23T09:25:10;99290.00;;;10.92;76.81
82006;BME280;71529;47.484;19.064;2024-02-23T09:27:42;99297.50;;;10.88;77.23
82006;BME280;71529;47.484;19.064;2024-02-23T09:30:13;99294.88;;;10.96;76.73
82006;BME280;71529;47.484;19.064;2024-02-23T09:32:45;99294.53;;;10.91;77.36
82006;BME280;71529;47.484;19.064;2024-02-23T09:35:14;99294.03;;;10.96;77.46
82006;BME280;71529;47.484;19.064;2024-02-23T09:37:44;99289.84;;;10.93;77.98
82006;BME280;71529;47.484;19.064;2024-02-23T09:40:14;99287.53;;;11.06;77.30
82006;BME280;71529;47.484;19.064;2024-02-23T09:42:51;99298.09;;;11.16;76.78
82006;BME280;71529;47.484;19.064;2024-02-23T09:45:24;99291.91;;;11.07;77.24
82006;BME280;71529;47.484;19.064;2024-02-23T09:47:56;99294.53;;;10.99;77.96
82006;BME280;71529;47.484;19.064;2024-02-23T09:50:27;99292.72;;;11.00;78.03
82006;BME280;71529;47.484;19.064;2024-02-23T09:52:58;99295.22;;;11.01;77.97
82006;BME280;71529;47.484;19.064;2024-02-23T09:55:27;99300.22;;;11.04;77.91
82006;BME280;71529;47.484;19.064;2024-02-23T09:57:59;99297.53;;;11.04;78.57
82006;BME280;71529;47.484;19.064;2024-02-23T10:00:29;99302.59;;;11.15;77.75
82006;BME280;71529;47.484;19.064;2024-02-23T10:02:58;99302.44;;;11.25;76.60
82006;BME280;71529;47.484;19.064;2024-02-23T10:05:30;99303.75;;;11.13;77.40
82006;BME280;71529;47.484;19.064;2024-02-23T10:07:59;99304.25;;;11.08;77.97
82006;BME280;71529;47.484;19.064;2024-02-23T10:10:29;99308.22;;;11.04;78.56
82006;BME280;71529;47.484;19.064;2024-02-23T10:13:02;99307.25;;;11.13;78.89
82006;BME280;71529;47.484;19.064;2024-02-23T10:15:34;99303.09;;;11.11;77.85
82006;BME280;71529;47.484;19.064;2024-02-23T10:18:04;99310.09;;;11.12;78.11
82006;BME280;71529;47.484;19.064;2024-02-23T10:20:33;99305.94;;;11.18;77.49
82006;BME280;71529;47.484;19.064;2024-02-23T10:23:03;99303.41;;;11.08;77.65
82006;BME280;71529;47.484;19.064;2024-02-23T10:25:33;99297.38;;;11.06;78.15
82006;BME280;71529;47.484;19.064;2024-02-23T10:28:05;99311.59;;;11.06;78.32
82006;BME280;71529;47.484;19.064;2024-02-23T10:30:36;99312.25;;;11.08;77.76
82006;BME280;71529;47.484;19.064;2024-02-23T10:33:06;99313.91;;;11.09;78.22
82006;BME280;71529;47.484;19.064;2024-02-23T10:35:38;99318.28;;;11.18;76.81
82006;BME280;71529;47.484;19.064;2024-02-23T10:38:08;99311.44;;;11.16;76.63
82006;BME280;71529;47.484;19.064;2024-02-23T10:40:39;99319.31;;;11.18;77.77
82006;BME280;71529;47.484;19.064;2024-02-23T10:43:12;99312.44;;;11.15;77.67
82006;BME280;71529;47.484;19.064;2024-02-23T10:45:45;99304.41;;;11.15;77.42
82006;BME280;71529;47.484;19.064;2024-02-23T10:48:15;99309.78;;;11.23;76.86
82006;BME280;71529;47.484;19.064;2024-02-23T10:50:44;99307.75;;;11.17;75.89
82006;BME280;71529;47.484;19.064;2024-02-23T10:53:13;99308.94;;;11.23;76.22
82006;BME280;71529;47.484;19.064;2024-02-23T10:55:45;99305.25;;;11.24;76.31
82006;BME280;71529;47.484;19.064;2024-02-23T10:58:18;99312.81;;;11.44;74.73
82006;BME280;71529;47.484;19.064;2024-02-23T11:00:47;99314.31;;;11.47;74.49
82006;BME280;71529;47.484;19.064;2024-02-23T11:03:17;99310.13;;;11.52;75.57
82006;BME280;71529;47.484;19.064;2024-02-23T11:05:47;99315.00;;;11.41;75.23
82006;BME280;71529;47.484;19.064;2024-02-23T11:08:17;99310.97;;;11.45;74.63
82006;BME280;71529;47.484;19.064;2024-02-23T11:10:51;99302.94;;;11.45;76.06
82006;BME280;71529;47.484;19.064;2024-02-23T11:13:34;99301.78;;;11.47;74.60
82006;BME280;71529;47.484;19.064;2024-02-23T11:16:03;99308.97;;;11.55;74.74
82006;BME280;71529;47.484;19.064;2024-02-23T11:18:34;99308.66;;;11.50;74.84
82006;BME280;71529;47.484;19.064;2024-02-23T11:21:04;99313.16;;;11.49;74.23
82006;BME280;71529;47.484;19.064;2024-02-23T11:23:41;99308.13;;;11.54;73.37
82006;BME280;71529;47.484;19.064;2024-02-23T11:26:10;99307.28;;;11.54;73.64
82006;BME280;71529;47.484;19.064;2024-02-23T11:28:47;99312.34;;;11.57;74.29
82006;BME280;71529;47.484;19.064;2024-02-23T11:31:20;99313.16;;;11.57;74.16
82006;BME280;71529;47.484;19.064;2024-02-23T11:33:50;99312.16;;;11.58;72.99
82006;BME280;71529;47.484;19.064;2024-02-23T11:36:23;99306.47;;;11.61;73.52
82006;BME280;71529;47.484;19.064;2024-02-23T11:38:53;99303.78;;;11.61;73.50
82006;BME280;71529;47.484;19.064;2024-02-23T11:41:23;99300.63;;;11.66;72.75
82006;BME280;71529;47.484;19.064;2024-02-23T11:43:56;99298.44;;;11.61;73.88
82006;BME280;71529;47.484;19.064;2024-02-23T11:46:24;99302.78;;;11.62;73.44
82006;BME280;71529;47.484;19.064;2024-02-23T11:48:54;99295.47;;;11.72;73.05
82006;BME280;71529;47.484;19.064;2024-02-23T11:51:23;99290.59;;;11.68;72.33
82006;BME280;71529;47.484;19.064;2024-02-23T11:53:55;99290.94;;;11.73;71.45
82006;BME280;71529;47.484;19.064;2024-02-23T11:56:26;99288.13;;;11.74;72.36
82006;BME280;71529;47.484;19.064;2024-02-23T11:59:00;99289.44;;;11.78;71.68
82006;BME280;71529;47.484;19.064;2024-02-23T12:01:29;99281.09;;;11.81;72.28
82006;BME280;71529;47.484;19.064;2024-02-23T12:03:58;99286.56;;;11.80;71.78
82006;BME280;71529;47.484;19.064;2024-02-23T12:06:25;99291.63;;;11.83;71.98
82006;BME280;71529;47.484;19.064;2024-02-23T12:08:56;99289.94;;;11.82;73.00
82006;BME280;71529;47.484;19.064;2024-02-23T12:11:25;99286.25;;;11.83;72.17
82006;BME280;71529;47.484;19.064;2024-02-23T12:13:58;99283.06;;;11.87;70.83
82006;BME280;71529;47.484;19.064;2024-02-23T12:16:28;99274.69;;;11.90;70.46
82006;BME280;71529;47.484;19.064;2024-02-23T12:18:56;99266.00;;;11.88;72.31
82006;BME280;71529;47.484;19.064;2024-02-23T12:21:26;99278.88;;;11.93;70.87
82006;BME280;71529;47.484;19.064;2024-02-23T12:23:55;99281.38;;;11.94;71.54
82006;BME280;71529;47.484;19.064;2024-02-23T12:26:23;99275.03;;;11.95;71.23
82006;BME280;71529;47.484;19.064;2024-02-23T12:29:03;99270.31;;;11.97;70.74
82006;BME280;71529;47.484;19.064;2024-02-23T12:31:32;99265.47;;;12.01;71.24
82006;BME280;71529;47.484;19.064;2024-02-23T12:34:01;99274.16;;;12.03;71.96
82006;BME280;71529;47.484;19.064;2024-02-23T12:36:30;99276.34;;;11.99;70.75
82006;BME280;71529;47.484;19.064;2024-02-23T12:39:01;99281.88;;;11.98;69.84
82006;BME280;71529;47.484;19.064;2024-02-23T12:41:31;99287.06;;;11.99;70.99
82006;BME280;71529;47.484;19.064;2024-02-23T12:44:03;99277.16;;;12.08;70.55
82006;BME280;71529;47.484;19.064;2024-02-23T12:46:32;99285.53;;;12.05;71.43
82006;BME280;71529;47.484;19.064;2024-02-23T12:49:02;99289.56;;;12.01;71.95
82006;BME280;71529;47.484;19.064;2024-02-23T12:51:31;99288.56;;;12.02;71.74
82006;BME280;71529;47.484;19.064;2024-02-23T12:54:00;99283.22;;;12.02;70.77
82006;BME280;71529;47.484;19.064;2024-02-23T12:56:30;99283.38;;;12.00;70.66
82006;BME280;71529;47.484;19.064;2024-02-23T12:58:59;99287.91;;;12.00;71.58
82006;BME280;71529;47.484;19.064;2024-02-23T13:01:31;99289.22;;;12.04;71.11
82006;BME280;71529;47.484;19.064;2024-02-23T13:04:03;99292.91;;;12.03;71.99